Time;durP1;ratioP1;P1;durP2;ratioP2;P2;SDS_P1;SDS_P2;PMS_P1;PMS_P2;Temp;Humidity;BMP_temperature;BMP_pressure;BME280_temperature;BME280_humidity;BME280_pressure;Samples;Min_cycle;Max_cycle;Signal;HPM_P1;HPM_P2
2023/04/06 00:01:52;;;;;;;;;;;6.50;82.00;;;;;;5110714;28;20390;-65
2023/04/06 00:04:17;;;;;;;;;;;6.50;82.10;;;;;;5111223;28;19996;-65
2023/04/06 00:06:43;;;;;;;;;;;6.50;82.10;;;;;;5111065;28;20038;-65
2023/04/06 00:09:08;;;;;;;;;;;6.40;82.10;;;;;;5107822;28;20392;-65
2023/04/06 00:11:34;;;;;;;;;;;6.50;82.20;;;;;;5111093;28;19912;-66
2023/04/06 00:14:00;;;;;;;;;;;6.40;82.20;;;;;;5110399;28;19908;-66
2023/04/06 00:16:26;;;;;;;;;;;6.40;82.20;;;;;;5111018;28;19927;-65
2023/04/06 00:18:51;;;;;;;;;;;6.40;82.20;;;;;;5110695;28;19912;-65
2023/04/06 00:21:17;;;;;;;;;;;6.30;82.10;;;;;;5110811;28;20400;-65
2023/04/06 00:23:43;;;;;;;;;;;6.30;82.00;;;;;;5110469;28;19912;-65
2023/04/06 00:26:08;;;;;;;;;;;6.30;82.10;;;;;;5110412;28;19959;-66
2023/04/06 00:28:34;;;;;;;;;;;6.30;82.10;;;;;;5110477;28;20438;-66
2023/04/06 00:30:59;;;;;;;;;;;6.30;82.10;;;;;;5104045;28;20395;-65
2023/04/06 00:33:25;;;;;;;;;;;6.30;82.30;;;;;;5104415;28;20425;-65
2023/04/06 00:35:51;;;;;;;;;;;6.30;82.20;;;;;;5108750;28;20357;-66
2023/04/06 00:38:16;;;;;;;;;;;6.20;82.10;;;;;;5110108;28;19919;-65
2023/04/06 00:40:45;;;;;;;;;;;6.20;82.20;;;;;;5109894;28;19915;-66
2023/04/06 00:43:11;;;;;;;;;;;6.20;82.30;;;;;;5109297;28;20389;-65
2023/04/06 00:45:40;;;;;;;;;;;6.10;82.20;;;;;;5109841;28;19918;-65
2023/04/06 00:48:06;;;;;;;;;;;6.20;82.20;;;;;;5109665;28;19922;-65
2023/04/06 00:50:32;;;;;;;;;;;6.10;82.30;;;;;;5109533;28;19963;-65
2023/04/06 00:53:00;;;;;;;;;;;6.10;82.20;;;;;;5109994;28;20175;-65
2023/04/06 00:55:26;;;;;;;;;;;6.10;82.30;;;;;;5110298;28;19957;-65
2023/04/06 00:57:52;;;;;;;;;;;6.10;82.30;;;;;;5110331;28;19927;-65
2023/04/06 01:00:17;;;;;;;;;;;6.00;82.30;;;;;;5104847;28;19912;-65
2023/04/06 01:02:44;;;;;;;;;;;6.10;82.40;;;;;;5109522;28;19912;-65
2023/04/06 01:05:10;;;;;;;;;;;6.00;82.40;;;;;;5109819;27;20615;-65
2023/04/06 01:07:36;;;;;;;;;;;6.00;83.10;;;;;;5109538;28;19916;-65
2023/04/06 01:10:02;;;;;;;;;;;6.00;82.50;;;;;;5109794;28;20330;-65
2023/04/06 01:12:28;;;;;;;;;;;6.00;82.50;;;;;;5109609;28;20417;-65
2023/04/06 01:14:54;;;;;;;;;;;6.00;82.60;;;;;;5108439;28;20007;-67
2023/04/06 01:17:19;;;;;;;;;;;6.00;82.60;;;;;;5110233;28;19911;-67
2023/04/06 01:19:45;;;;;;;;;;;6.00;82.70;;;;;;5108996;28;20538;-67
2023/04/06 01:22:15;;;;;;;;;;;5.90;82.60;;;;;;5109415;28;19912;-67
2023/04/06 01:24:40;;;;;;;;;;;5.90;82.70;;;;;;5108073;28;19912;-68
2023/04/06 01:27:06;;;;;;;;;;;5.90;82.70;;;;;;5109236;28;19912;-67
2023/04/06 01:29:31;;;;;;;;;;;5.90;82.70;;;;;;5109414;28;19912;-67
2023/04/06 01:31:57;;;;;;;;;;;5.90;82.70;;;;;;5104281;28;19912;-67
2023/04/06 01:34:22;;;;;;;;;;;5.90;82.70;;;;;;5089664;28;20021;-67
2023/04/06 01:36:48;;;;;;;;;;;5.90;82.80;;;;;;5089649;28;19946;-67
2023/04/06 01:39:14;;;;;;;;;;;5.90;82.70;;;;;;5087448;28;19912;-67
2023/04/06 01:41:40;;;;;;;;;;;5.90;82.70;;;;;;5105821;28;19999;-67
2023/04/06 01:44:05;;;;;;;;;;;5.80;82.60;;;;;;5108968;28;19915;-67
2023/04/06 01:46:31;;;;;;;;;;;5.80;82.70;;;;;;5107799;28;19912;-67
2023/04/06 01:48:57;;;;;;;;;;;5.80;82.80;;;;;;5109070;28;20331;-67
2023/04/06 01:51:24;;;;;;;;;;;5.80;82.70;;;;;;5109005;28;20257;-67
2023/04/06 01:53:49;;;;;;;;;;;5.80;82.80;;;;;;5108968;28;19912;-67
2023/04/06 01:56:15;;;;;;;;;;;5.80;82.80;;;;;;5108807;28;19919;-67
2023/04/06 01:58:40;;;;;;;;;;;5.80;82.80;;;;;;5108833;28;19918;-67
2023/04/06 02:01:06;;;;;;;;;;;5.80;82.80;;;;;;5102193;28;19912;-67
2023/04/06 02:03:32;;;;;;;;;;;5.80;82.80;;;;;;5108355;28;19911;-67
2023/04/06 02:05:57;;;;;;;;;;;5.80;82.80;;;;;;5108901;28;19908;-67
2023/04/06 02:08:23;;;;;;;;;;;5.80;82.80;;;;;;5108511;28;19923;-67
2023/04/06 02:10:49;;;;;;;;;;;5.80;82.90;;;;;;5108623;28;19911;-67
2023/04/06 02:13:14;;;;;;;;;;;5.70;82.80;;;;;;5107627;28;19912;-67
2023/04/06 02:15:40;;;;;;;;;;;5.70;82.90;;;;;;5108448;28;19912;-68
2023/04/06 02:18:05;;;;;;;;;;;5.70;82.80;;;;;;5107013;28;19912;-67
2023/04/06 02:20:31;;;;;;;;;;;5.70;82.90;;;;;;5108477;28;19919;-67
2023/04/06 02:22:59;;;;;;;;;;;5.70;82.90;;;;;;5107160;28;19919;-67
2023/04/06 02:25:24;;;;;;;;;;;5.70;82.80;;;;;;5107435;28;19908;-67
2023/04/06 02:27:50;;;;;;;;;;;5.70;82.80;;;;;;5108643;28;19915;-67
2023/04/06 02:30:15;;;;;;;;;;;5.70;82.90;;;;;;5108418;28;19912;-67
2023/04/06 02:32:41;;;;;;;;;;;5.60;82.90;;;;;;5087005;28;19912;-67
2023/04/06 02:35:07;;;;;;;;;;;5.70;82.90;;;;;;5087926;28;19912;-67
2023/04/06 02:37:32;;;;;;;;;;;5.60;82.90;;;;;;5100515;28;19912;-67
2023/04/06 02:39:58;;;;;;;;;;;5.60;82.90;;;;;;5106547;28;19927;-67
2023/04/06 02:42:23;;;;;;;;;;;5.60;83.00;;;;;;5106786;28;19911;-67
2023/04/06 02:44:49;;;;;;;;;;;5.60;82.90;;;;;;5107992;28;19918;-67
2023/04/06 02:47:15;;;;;;;;;;;5.60;83.30;;;;;;5108230;28;20364;-67
2023/04/06 02:49:40;;;;;;;;;;;5.60;82.90;;;;;;5107942;28;20006;-67
2023/04/06 02:52:06;;;;;;;;;;;5.50;82.90;;;;;;5106548;28;20048;-67
2023/04/06 02:54:32;;;;;;;;;;;5.60;82.90;;;;;;5106917;28;19911;-67
2023/04/06 02:56:57;;;;;;;;;;;5.60;83.00;;;;;;5107977;28;20022;-67
2023/04/06 02:59:23;;;;;;;;;;;5.50;82.90;;;;;;5107579;28;19919;-67
2023/04/06 03:01:48;;;;;;;;;;;5.50;82.90;;;;;;5107006;28;19911;-67
2023/04/06 03:04:14;;;;;;;;;;;5.50;82.90;;;;;;5106074;28;19940;-67
2023/04/06 03:06:40;;;;;;;;;;;5.50;83.60;;;;;;5107589;28;19911;-68
2023/04/06 03:09:06;;;;;;;;;;;5.50;83.00;;;;;;5107329;28;20399;-67
2023/04/06 03:11:31;;;;;;;;;;;5.50;83.00;;;;;;5107633;28;19911;-67
2023/04/06 03:13:57;;;;;;;;;;;5.50;83.00;;;;;;5106548;28;19912;-67
2023/04/06 03:16:22;;;;;;;;;;;5.50;83.00;;;;;;5107366;28;19919;-67
2023/04/06 03:18:48;;;;;;;;;;;5.50;83.00;;;;;;5105612;28;19919;-67
2023/04/06 03:21:17;;;;;;;;;;;5.40;83.00;;;;;;5107229;28;19915;-67
2023/04/06 03:23:42;;;;;;;;;;;5.50;83.10;;;;;;5107453;28;19916;-67
2023/04/06 03:26:08;;;;;;;;;;;5.40;83.10;;;;;;5107152;28;19920;-67
2023/04/06 03:28:33;;;;;;;;;;;5.40;83.10;;;;;;5107768;28;19954;-67
2023/04/06 03:30:59;;;;;;;;;;;5.40;83.10;;;;;;5101498;28;19912;-67
2023/04/06 03:33:27;;;;;;;;;;;5.40;83.10;;;;;;5085412;28;19978;-67
2023/04/06 03:35:52;;;;;;;;;;;5.40;83.10;;;;;;5086908;28;20331;-67
2023/04/06 03:38:18;;;;;;;;;;;5.40;83.20;;;;;;5104964;28;20129;-67
2023/04/06 03:40:44;;;;;;;;;;;5.40;83.20;;;;;;5107714;28;19912;-67
2023/04/06 03:43:09;;;;;;;;;;;5.30;83.20;;;;;;5108398;28;20364;-67
2023/04/06 03:45:35;;;;;;;;;;;5.30;83.20;;;;;;5111446;28;19937;-67
2023/04/06 03:48:00;;;;;;;;;;;5.30;83.20;;;;;;5111438;28;19959;-69
2023/04/06 03:50:26;;;;;;;;;;;5.30;83.30;;;;;;5110988;28;20422;-67
2023/04/06 03:52:51;;;;;;;;;;;5.30;83.30;;;;;;5111020;28;19994;-67
2023/04/06 03:55:17;;;;;;;;;;;5.30;83.40;;;;;;5110881;28;20285;-67
2023/04/06 03:57:42;;;;;;;;;;;5.30;83.30;;;;;;5110772;28;20360;-68
2023/04/06 04:00:08;;;;;;;;;;;5.30;83.30;;;;;;5109992;28;20469;-67
2023/04/06 04:02:34;;;;;;;;;;;5.20;83.20;;;;;;5109830;28;19950;-67
2023/04/06 04:05:00;;;;;;;;;;;5.20;83.30;;;;;;5109844;28;19962;-67
2023/04/06 04:07:25;;;;;;;;;;;5.20;83.30;;;;;;5109824;28;20353;-67
2023/04/06 04:09:51;;;;;;;;;;;5.20;83.40;;;;;;5110061;28;20395;-67
2023/04/06 04:12:16;;;;;;;;;;;5.20;83.40;;;;;;5109763;28;19947;-67
2023/04/06 04:14:42;;;;;;;;;;;5.20;83.40;;;;;;5109638;28;19918;-67
2023/04/06 04:17:08;;;;;;;;;;;5.20;83.40;;;;;;5110852;28;19931;-67
2023/04/06 04:19:33;;;;;;;;;;;5.20;83.30;;;;;;5111071;28;19920;-67
2023/04/06 04:21:59;;;;;;;;;;;5.20;83.40;;;;;;5110606;28;20556;-67
2023/04/06 04:24:24;;;;;;;;;;;5.20;83.30;;;;;;5110818;28;19908;-67
2023/04/06 04:26:50;;;;;;;;;;;5.10;83.30;;;;;;5110501;28;19938;-67
2023/04/06 04:29:16;;;;;;;;;;;5.10;83.40;;;;;;5110569;28;19916;-67
2023/04/06 04:31:42;;;;;;;;;;;5.10;83.30;;;;;;5098454;27;20661;-67
2023/04/06 04:34:07;;;;;;;;;;;5.10;83.30;;;;;;5090099;28;19912;-67
2023/04/06 04:36:33;;;;;;;;;;;5.10;83.30;;;;;;5094531;28;19919;-67
2023/04/06 04:39:00;;;;;;;;;;;5.10;83.40;;;;;;5109973;28;20323;-67
2023/04/06 04:41:26;;;;;;;;;;;5.10;83.40;;;;;;5110469;28;19912;-67
2023/04/06 04:43:51;;;;;;;;;;;5.10;83.40;;;;;;5110150;28;19916;-67
2023/04/06 04:46:17;;;;;;;;;;;5.10;83.30;;;;;;5110488;28;19912;-67
2023/04/06 04:48:43;;;;;;;;;;;5.10;83.40;;;;;;5110488;28;19923;-67
2023/04/06 04:51:08;;;;;;;;;;;5.00;83.40;;;;;;5108880;28;20441;-67
2023/04/06 04:53:34;;;;;;;;;;;5.10;83.40;;;;;;5108504;28;19964;-67
2023/04/06 04:55:59;;;;;;;;;;;5.10;83.40;;;;;;5109187;28;19908;-67
2023/04/06 04:58:25;;;;;;;;;;;5.00;83.40;;;;;;5109612;28;20482;-67
2023/04/06 05:00:50;;;;;;;;;;;5.00;83.50;;;;;;5104572;27;19911;-67
2023/04/06 05:03:20;;;;;;;;;;;5.00;83.40;;;;;;5093544;28;20337;-67
2023/04/06 05:05:45;;;;;;;;;;;5.00;83.40;;;;;;5089328;28;19908;-67
2023/04/06 05:08:11;;;;;;;;;;;5.00;83.40;;;;;;5101990;28;19916;-67
2023/04/06 05:10:37;;;;;;;;;;;5.00;83.40;;;;;;5100323;28;19920;-67
2023/04/06 05:13:02;;;;;;;;;;;5.00;83.40;;;;;;5109090;28;19912;-67
2023/04/06 05:15:28;;;;;;;;;;;5.00;83.30;;;;;;5109634;28;19994;-67
2023/04/06 05:17:53;;;;;;;;;;;5.00;83.40;;;;;;5109517;28;19919;-67
2023/04/06 05:20:19;;;;;;;;;;;5.00;83.40;;;;;;5109288;28;19920;-67
2023/04/06 05:22:44;;;;;;;;;;;5.00;83.40;;;;;;5108935;28;19912;-67
2023/04/06 05:25:10;;;;;;;;;;;5.00;83.30;;;;;;5109081;28;19980;-67
2023/04/06 05:27:35;;;;;;;;;;;5.00;83.30;;;;;;5109303;28;19942;-67
2023/04/06 05:30:01;;;;;;;;;;;5.00;83.40;;;;;;5109454;28;19918;-67
2023/04/06 05:32:27;;;;;;;;;;;5.00;83.20;;;;;;5108537;28;19968;-67
2023/04/06 05:34:52;;;;;;;;;;;5.00;83.40;;;;;;5109384;28;20383;-67
2023/04/06 05:37:18;;;;;;;;;;;5.00;83.30;;;;;;5107209;28;19923;-67
2023/04/06 05:39:44;;;;;;;;;;;5.00;83.30;;;;;;5109237;28;19912;-67
2023/04/06 05:42:09;;;;;;;;;;;5.00;83.40;;;;;;5108767;28;19912;-67
2023/04/06 05:44:37;;;;;;;;;;;5.00;83.40;;;;;;5108521;28;20664;-67
2023/04/06 05:47:02;;;;;;;;;;;5.00;83.20;;;;;;5108224;28;19950;-67
2023/04/06 05:49:28;;;;;;;;;;;5.00;83.40;;;;;;5109141;28;19967;-67
2023/04/06 05:51:53;;;;;;;;;;;5.00;83.30;;;;;;5108588;28;19919;-67
2023/04/06 05:54:19;;;;;;;;;;;5.00;83.30;;;;;;5107398;28;19919;-67
2023/04/06 05:56:45;;;;;;;;;;;5.00;83.30;;;;;;5106741;28;19919;-67
2023/04/06 05:59:10;;;;;;;;;;;5.00;83.20;;;;;;5108629;28;19916;-67
2023/04/06 06:01:36;;;;;;;;;;;5.00;83.30;;;;;;5108637;28;19950;-67
2023/04/06 06:04:01;;;;;;;;;;;5.10;83.30;;;;;;5108905;28;19954;-67
2023/04/06 06:06:27;;;;;;;;;;;5.10;83.20;;;;;;5108590;28;19920;-67
2023/04/06 06:08:53;;;;;;;;;;;5.10;83.20;;;;;;5108679;28;19919;-67
2023/04/06 06:11:19;;;;;;;;;;;5.10;83.20;;;;;;5108472;28;19916;-67
2023/04/06 06:13:44;;;;;;;;;;;5.10;83.10;;;;;;5108287;28;19912;-67
2023/04/06 06:16:10;;;;;;;;;;;5.10;83.20;;;;;;5108622;28;19912;-67
2023/04/06 06:18:36;;;;;;;;;;;5.10;83.10;;;;;;5108748;28;19912;-68
2023/04/06 06:21:02;;;;;;;;;;;5.10;83.10;;;;;;5108559;28;20460;-67
2023/04/06 06:23:27;;;;;;;;;;;5.10;83.10;;;;;;5108416;28;19958;-67
2023/04/06 06:25:53;;;;;;;;;;;5.20;83.10;;;;;;5108355;28;19980;-67
2023/04/06 06:28:19;;;;;;;;;;;5.10;83.00;;;;;;5108235;28;19926;-67
2023/04/06 06:30:45;;;;;;;;;;;5.10;83.10;;;;;;5103991;28;19915;-67
2023/04/06 06:33:10;;;;;;;;;;;5.20;83.30;;;;;;5087529;28;20000;-67
2023/04/06 06:35:36;;;;;;;;;;;5.20;83.10;;;;;;5087859;28;19919;-67
2023/04/06 06:38:01;;;;;;;;;;;5.20;83.00;;;;;;5103991;28;20023;-67
2023/04/06 06:40:27;;;;;;;;;;;5.20;83.10;;;;;;5107901;28;20328;-67
2023/04/06 06:42:53;;;;;;;;;;;5.20;83.10;;;;;;5107948;27;19908;-67
2023/04/06 06:45:19;;;;;;;;;;;5.20;83.10;;;;;;5106849;28;20032;-67
2023/04/06 06:47:45;;;;;;;;;;;5.30;83.20;;;;;;5107720;28;19925;-67
2023/04/06 06:50:11;;;;;;;;;;;5.20;83.20;;;;;;5108097;28;20010;-67
2023/04/06 06:52:36;;;;;;;;;;;5.30;83.20;;;;;;5107819;28;20316;-67
2023/04/06 06:55:02;;;;;;;;;;;5.30;83.20;;;;;;5108057;28;19919;-67
2023/04/06 06:57:27;;;;;;;;;;;5.30;83.20;;;;;;5107055;28;19919;-67
2023/04/06 06:59:53;;;;;;;;;;;5.30;83.30;;;;;;5107765;28;19912;-67
2023/04/06 07:02:18;;;;;;;;;;;5.40;83.30;;;;;;5106180;28;19916;-67
2023/04/06 07:04:47;;;;;;;;;;;5.40;83.10;;;;;;5108137;28;19911;-67
2023/04/06 07:07:12;;;;;;;;;;;5.50;82.90;;;;;;5108072;28;20010;-67
2023/04/06 07:09:38;;;;;;;;;;;5.50;82.90;;;;;;5108086;28;20002;-67
2023/04/06 07:12:03;;;;;;;;;;;5.60;82.90;;;;;;5107423;28;19998;-67
2023/04/06 07:14:29;;;;;;;;;;;5.60;82.70;;;;;;5108056;28;20003;-67
2023/04/06 07:16:55;;;;;;;;;;;5.70;82.70;;;;;;5107715;28;19934;-67
2023/04/06 07:19:20;;;;;;;;;;;5.70;82.70;;;;;;5111105;28;19945;-67
2023/04/06 07:21:46;;;;;;;;;;;5.70;82.80;;;;;;5110362;28;20430;-67
2023/04/06 07:24:11;;;;;;;;;;;5.80;82.70;;;;;;5111966;28;19912;-67
2023/04/06 07:26:37;;;;;;;;;;;5.80;82.60;;;;;;5111441;28;19969;-67
2023/04/06 07:29:02;;;;;;;;;;;5.80;82.50;;;;;;5112107;28;19919;-67
2023/04/06 07:31:28;;;;;;;;;;;5.90;82.60;;;;;;5110167;28;19911;-67
2023/04/06 07:33:53;;;;;;;;;;;5.90;82.80;;;;;;5111270;28;19915;-67
2023/04/06 07:36:19;;;;;;;;;;;6.00;82.90;;;;;;5111669;28;19908;-67
2023/04/06 07:38:45;;;;;;;;;;;6.10;83.00;;;;;;5111442;28;19935;-67
2023/04/06 07:41:11;;;;;;;;;;;6.10;82.70;;;;;;5111762;28;20422;-67
2023/04/06 07:43:37;;;;;;;;;;;6.20;82.50;;;;;;5111585;28;19911;-67
2023/04/06 07:46:03;;;;;;;;;;;6.30;82.10;;;;;;5111702;28;20575;-67
2023/04/06 07:48:29;;;;;;;;;;;6.40;82.00;;;;;;5111356;28;19915;-67
2023/04/06 07:51:00;;;;;;;;;;;6.50;81.90;;;;;;5110004;28;19908;-67
2023/04/06 07:53:26;;;;;;;;;;;6.60;82.10;;;;;;5111599;28;20638;-67
2023/04/06 07:55:51;;;;;;;;;;;6.60;81.70;;;;;;5108944;28;19912;-67
2023/04/06 07:58:17;;;;;;;;;;;6.70;81.70;;;;;;5107984;28;19911;-67
2023/04/06 08:00:42;;;;;;;;;;;6.80;81.60;;;;;;5111518;28;19965;-67
2023/04/06 08:03:08;;;;;;;;;;;6.80;81.60;;;;;;5111014;28;19951;-67
2023/04/06 08:05:33;;;;;;;;;;;6.90;81.30;;;;;;5111195;28;20008;-67
2023/04/06 08:07:59;;;;;;;;;;;6.90;81.10;;;;;;5109602;28;19916;-68
2023/04/06 08:10:24;;;;;;;;;;;7.00;81.30;;;;;;5111353;28;19914;-67
2023/04/06 08:12:50;;;;;;;;;;;7.10;81.30;;;;;;5110750;28;20497;-67
2023/04/06 08:15:17;;;;;;;;;;;7.20;81.30;;;;;;5110930;28;20452;-67
2023/04/06 08:17:43;;;;;;;;;;;7.20;81.30;;;;;;5109311;28;20292;-68
2023/04/06 08:20:09;;;;;;;;;;;7.30;81.00;;;;;;5110935;28;19920;-67
2023/04/06 08:22:34;;;;;;;;;;;7.40;81.30;;;;;;5110663;28;20254;-67
2023/04/06 08:25:00;;;;;;;;;;;7.40;80.90;;;;;;5111062;28;20002;-67
2023/04/06 08:27:26;;;;;;;;;;;7.60;81.00;;;;;;5110676;28;20015;-68
2023/04/06 08:29:51;;;;;;;;;;;7.60;80.90;;;;;;5108178;28;20426;-67
2023/04/06 08:32:17;;;;;;;;;;;7.70;80.30;;;;;;5092945;28;19916;-67
2023/04/06 08:34:42;;;;;;;;;;;7.80;80.20;;;;;;5108972;28;19918;-67
2023/04/06 08:37:08;;;;;;;;;;;7.80;79.90;;;;;;5110383;28;20105;-67
2023/04/06 08:39:33;;;;;;;;;;;7.90;79.80;;;;;;5110282;28;19912;-67
2023/04/06 08:42:00;;;;;;;;;;;8.00;79.80;;;;;;5109737;28;19951;-67
2023/04/06 08:44:26;;;;;;;;;;;8.10;79.60;;;;;;5110058;28;19907;-67
2023/04/06 08:46:52;;;;;;;;;;;8.20;79.80;;;;;;5109777;28;20426;-67
2023/04/06 08:49:18;;;;;;;;;;;8.20;79.60;;;;;;5109884;28;19923;-68
2023/04/06 08:51:44;;;;;;;;;;;8.40;80.10;;;;;;5109342;28;20484;-67
2023/04/06 08:54:09;;;;;;;;;;;8.40;79.70;;;;;;5109305;28;20578;-68
2023/04/06 08:56:38;;;;;;;;;;;8.50;79.50;;;;;;5107665;28;19912;-67
2023/04/06 08:59:04;;;;;;;;;;;8.50;79.70;;;;;;5108510;28;20420;-68
2023/04/06 09:01:30;;;;;;;;;;;8.60;79.80;;;;;;5110021;28;19943;-68
2023/04/06 09:04:04;;;;;;;;;;;8.60;79.80;;;;;;5109654;28;20720;-68
2023/04/06 09:06:31;;;;;;;;;;;8.60;80.00;;;;;;5110074;28;19927;-67
2023/04/06 09:08:57;;;;;;;;;;;8.70;80.10;;;;;;5108586;28;19960;-67
2023/04/06 09:11:23;;;;;;;;;;;8.70;80.10;;;;;;5109808;28;19940;-68
2023/04/06 09:13:49;;;;;;;;;;;8.80;80.30;;;;;;5109812;28;19947;-67
2023/04/06 09:16:15;;;;;;;;;;;8.80;79.80;;;;;;5109985;28;20006;-68
2023/04/06 09:18:41;;;;;;;;;;;8.90;80.00;;;;;;5109561;28;20007;-67
2023/04/06 09:21:07;;;;;;;;;;;8.90;80.00;;;;;;5109968;28;20441;-67
2023/04/06 09:23:33;;;;;;;;;;;8.90;79.80;;;;;;5108121;28;19911;-67
2023/04/06 09:26:05;;;;;;;;;;;9.00;79.80;;;;;;5109574;28;19912;-68
2023/04/06 09:28:40;;;;;;;;;;;9.00;79.60;;;;;;5109058;28;19927;-67
2023/04/06 09:31:06;;;;;;;;;;;9.00;79.70;;;;;;5104878;28;20357;-68
2023/04/06 09:33:31;;;;;;;;;;;9.00;79.90;;;;;;5088838;28;19912;-68
2023/04/06 09:35:57;;;;;;;;;;;9.10;80.00;;;;;;5089173;28;19919;-68
2023/04/06 09:38:22;;;;;;;;;;;9.20;80.00;;;;;;5108308;28;19961;-68
2023/04/06 09:40:49;;;;;;;;;;;9.20;79.90;;;;;;5107873;28;19965;-68
2023/04/06 09:43:23;;;;;;;;;;;9.20;80.20;;;;;;5109682;28;20360;-68
2023/04/06 09:45:48;;;;;;;;;;;9.30;79.80;;;;;;5109417;28;19972;-68
2023/04/06 09:48:14;;;;;;;;;;;9.30;79.90;;;;;;5109180;28;19915;-68
2023/04/06 09:50:40;;;;;;;;;;;9.40;80.10;;;;;;5107906;28;19915;-68
2023/04/06 09:53:06;;;;;;;;;;;9.30;80.20;;;;;;5109035;28;20451;-68
2023/04/06 09:55:40;;;;;;;;;;;9.40;79.80;;;;;;5107681;28;20362;-68
2023/04/06 09:58:06;;;;;;;;;;;9.40;80.10;;;;;;5103503;28;20273;-68
2023/04/06 10:00:40;;;;;;;;;;;9.50;80.20;;;;;;5108662;28;19916;-68
2023/04/06 10:03:16;;;;;;;;;;;9.50;80.30;;;;;;5108604;28;20677;-68
2023/04/06 10:05:46;;;;;;;;;;;9.50;80.40;;;;;;5105049;28;19922;-68
2023/04/06 10:08:13;;;;;;;;;;;9.60;80.50;;;;;;5108320;28;19916;-68
2023/04/06 10:10:38;;;;;;;;;;;9.60;80.60;;;;;;5106207;28;20074;-68
2023/04/06 10:13:04;;;;;;;;;;;9.60;80.30;;;;;;5107823;27;19918;-68
2023/04/06 10:15:30;;;;;;;;;;;9.70;80.00;;;;;;5107204;28;19915;-68
2023/04/06 10:17:56;;;;;;;;;;;9.80;79.90;;;;;;5098213;28;19927;-68
2023/04/06 10:20:38;;;;;;;;;;;9.80;80.00;;;;;;5091415;27;19924;-68
2023/04/06 10:23:15;;;;;;;;;;;9.90;79.90;;;;;;5087734;28;20068;-68
2023/04/06 10:25:51;;;;;;;;;;;9.90;80.00;;;;;;5092195;28;20396;-68
2023/04/06 10:28:18;;;;;;;;;;;10.00;80.10;;;;;;5108049;28;19916;-68
2023/04/06 10:30:44;;;;;;;;;;;10.10;79.80;;;;;;5104068;28;20385;-68
2023/04/06 10:33:17;;;;;;;;;;;10.10;79.70;;;;;;5087121;28;19919;-68
2023/04/06 10:35:42;;;;;;;;;;;10.10;79.00;;;;;;5088029;28;19912;-68
2023/04/06 10:38:08;;;;;;;;;;;10.20;79.00;;;;;;5103149;28;20021;-68
2023/04/06 10:40:37;;;;;;;;;;;10.30;79.10;;;;;;5107825;28;19919;-68
2023/04/06 10:43:07;;;;;;;;;;;10.30;79.00;;;;;;5107570;28;19915;-68
2023/04/06 10:45:33;;;;;;;;;;;10.40;79.00;;;;;;5108222;28;20445;-68
2023/04/06 10:47:58;;;;;;;;;;;10.40;79.10;;;;;;5108235;28;19915;-68
2023/04/06 10:50:24;;;;;;;;;;;10.40;78.30;;;;;;5108215;28;19939;-68
2023/04/06 10:53:00;;;;;;;;;;;10.50;78.60;;;;;;5106974;28;19908;-68
2023/04/06 10:55:29;;;;;;;;;;;10.50;78.70;;;;;;5108270;28;19915;-68
2023/04/06 10:57:54;;;;;;;;;;;10.50;78.70;;;;;;5107561;28;20334;-68
2023/04/06 11:00:20;;;;;;;;;;;10.60;79.20;;;;;;5100138;28;19913;-68
2023/04/06 11:02:46;;;;;;;;;;;10.70;79.10;;;;;;5096346;27;19920;-68
2023/04/06 11:05:12;;;;;;;;;;;10.70;78.90;;;;;;5101316;28;19965;-66
2023/04/06 11:07:39;;;;;;;;;;;10.80;79.10;;;;;;5106911;28;19908;-66
2023/04/06 11:10:05;;;;;;;;;;;10.90;78.80;;;;;;5091375;28;19954;-66
2023/04/06 11:12:31;;;;;;;;;;;10.90;79.90;;;;;;5086346;28;19912;-66
2023/04/06 11:15:01;;;;;;;;;;;11.00;78.90;;;;;;5085479;28;19953;-66
2023/04/06 11:17:31;;;;;;;;;;;11.10;77.90;;;;;;5086391;28;19912;-66
2023/04/06 11:19:57;;;;;;;;;;;11.20;79.30;;;;;;5086494;28;19920;-66
2023/04/06 11:22:23;;;;;;;;;;;11.30;79.20;;;;;;5103161;28;20389;-66
2023/04/06 11:24:49;;;;;;;;;;;11.40;79.20;;;;;;5105851;28;19916;-66
2023/04/06 11:27:17;;;;;;;;;;;11.50;78.30;;;;;;5104430;28;20454;-66
2023/04/06 11:29:43;;;;;;;;;;;11.70;78.60;;;;;;5106716;28;19958;-66
2023/04/06 11:32:09;;;;;;;;;;;11.80;78.00;;;;;;5106780;28;20410;-66
2023/04/06 11:34:36;;;;;;;;;;;11.90;78.40;;;;;;5106188;28;20288;-66
2023/04/06 11:37:05;;;;;;;;;;;12.00;77.70;;;;;;5107335;28;20352;-66
2023/04/06 11:39:32;;;;;;;;;;;12.10;78.30;;;;;;5105923;28;19912;-66
2023/04/06 11:42:02;;;;;;;;;;;12.20;78.50;;;;;;5106918;28;19923;-66
2023/04/06 11:44:33;;;;;;;;;;;12.20;78.00;;;;;;5107087;28;19965;-66
2023/04/06 11:47:00;;;;;;;;;;;12.30;78.70;;;;;;5106155;28;19923;-66
2023/04/06 11:49:29;;;;;;;;;;;12.30;78.60;;;;;;5107260;28;19916;-66
2023/04/06 11:51:55;;;;;;;;;;;12.30;78.90;;;;;;5107003;28;20366;-66
2023/04/06 11:54:30;;;;;;;;;;;12.40;78.70;;;;;;5107431;28;19916;-66
2023/04/06 11:56:56;;;;;;;;;;;12.40;78.90;;;;;;5101481;28;19908;-66
2023/04/06 11:59:22;;;;;;;;;;;12.40;78.50;;;;;;5106840;28;20392;-66
2023/04/06 12:01:48;;;;;;;;;;;12.50;78.50;;;;;;5105865;28;20367;-66
2023/04/06 12:04:13;;;;;;;;;;;12.50;78.40;;;;;;5108236;28;19912;-66
2023/04/06 12:06:39;;;;;;;;;;;12.50;77.30;;;;;;5110888;28;20338;-66
2023/04/06 12:09:05;;;;;;;;;;;12.60;78.30;;;;;;5109347;28;19916;-66
2023/04/06 12:11:30;;;;;;;;;;;12.60;78.30;;;;;;5110805;28;19929;-66
2023/04/06 12:13:56;;;;;;;;;;;12.70;77.80;;;;;;5110272;28;19951;-66
2023/04/06 12:16:21;;;;;;;;;;;12.70;78.40;;;;;;5110794;28;19985;-66
2023/04/06 12:18:47;;;;;;;;;;;12.70;78.40;;;;;;5110337;28;19912;-66
2023/04/06 12:21:12;;;;;;;;;;;12.80;77.90;;;;;;5110725;28;19916;-66
2023/04/06 12:23:38;;;;;;;;;;;12.80;77.80;;;;;;5110322;28;20357;-66
2023/04/06 12:26:03;;;;;;;;;;;12.80;77.60;;;;;;5110643;28;19939;-66
2023/04/06 12:28:29;;;;;;;;;;;12.90;78.10;;;;;;5110138;28;19998;-66
2023/04/06 12:30:55;;;;;;;;;;;12.90;77.90;;;;;;5110114;28;19961;-66
2023/04/06 12:33:21;;;;;;;;;;;12.90;77.70;;;;;;5108182;28;19919;-66
2023/04/06 12:35:46;;;;;;;;;;;13.00;77.40;;;;;;5109988;28;19969;-66
2023/04/06 12:38:12;;;;;;;;;;;13.00;77.80;;;;;;5108025;28;19912;-66
2023/04/06 12:40:38;;;;;;;;;;;13.00;78.20;;;;;;5109481;28;19908;-66
2023/04/06 12:43:03;;;;;;;;;;;13.00;78.10;;;;;;5108051;28;20326;-66
2023/04/06 12:45:30;;;;;;;;;;;13.10;78.00;;;;;;5109816;28;19918;-66
2023/04/06 12:47:56;;;;;;;;;;;13.10;78.30;;;;;;5108946;28;19924;-66
2023/04/06 12:50:21;;;;;;;;;;;13.10;78.10;;;;;;5109940;28;19990;-66
2023/04/06 12:52:47;;;;;;;;;;;13.20;78.10;;;;;;5109673;28;19911;-66
2023/04/06 12:55:12;;;;;;;;;;;13.20;76.80;;;;;;5110328;28;19920;-66
2023/04/06 12:57:38;;;;;;;;;;;13.20;78.70;;;;;;5104298;28;20288;-66
2023/04/06 13:00:04;;;;;;;;;;;13.20;78.80;;;;;;5109790;28;20403;-66
2023/04/06 13:02:30;;;;;;;;;;;13.20;78.60;;;;;;5109236;28;19908;-66
2023/04/06 13:04:56;;;;;;;;;;;13.20;78.90;;;;;;5110218;28;19919;-66
2023/04/06 13:07:21;;;;;;;;;;;13.20;79.00;;;;;;5109897;27;19912;-66
2023/04/06 13:09:49;;;;;;;;;;;13.10;78.10;;;;;;5109811;28;19993;-66
2023/04/06 13:12:15;;;;;;;;;;;13.10;77.30;;;;;;5109358;28;19919;-66
2023/04/06 13:14:40;;;;;;;;;;;13.10;78.70;;;;;;5109625;28;19911;-66
2023/04/06 13:17:06;;;;;;;;;;;13.10;78.60;;;;;;5108980;27;19919;-66
2023/04/06 13:19:32;;;;;;;;;;;13.10;78.60;;;;;;5108331;28;20299;-66
2023/04/06 13:21:58;;;;;;;;;;;13.10;78.80;;;;;;5108890;28;20733;-66
2023/04/06 13:24:23;;;;;;;;;;;13.10;78.40;;;;;;5109746;28;19912;-66
2023/04/06 13:26:49;;;;;;;;;;;13.00;78.80;;;;;;5108057;28;19912;-66
2023/04/06 13:29:16;;;;;;;;;;;13.00;79.00;;;;;;5108924;28;20223;-66
2023/04/06 13:31:42;;;;;;;;;;;13.00;79.20;;;;;;5098666;28;20310;-66
2023/04/06 13:34:07;;;;;;;;;;;13.00;79.30;;;;;;5088649;28;19912;-66
2023/04/06 13:36:33;;;;;;;;;;;13.00;79.20;;;;;;5093082;28;19915;-66
2023/04/06 13:38:59;;;;;;;;;;;13.00;79.20;;;;;;5109202;28;19923;-66
2023/04/06 13:41:26;;;;;;;;;;;13.00;79.10;;;;;;5109288;28;20010;-66
2023/04/06 13:43:51;;;;;;;;;;;13.00;79.20;;;;;;5108853;28;19918;-66
2023/04/06 13:46:17;;;;;;;;;;;13.00;78.00;;;;;;5109114;28;19941;-66
2023/04/06 13:48:43;;;;;;;;;;;13.00;79.10;;;;;;5108888;28;19916;-66
2023/04/06 13:51:12;;;;;;;;;;;13.00;79.40;;;;;;5107509;28;19966;-66
2023/04/06 13:53:38;;;;;;;;;;;13.00;79.60;;;;;;5108646;28;19934;-66
2023/04/06 13:56:04;;;;;;;;;;;12.90;79.00;;;;;;5105613;28;20364;-66
2023/04/06 13:58:29;;;;;;;;;;;12.90;79.60;;;;;;5106277;28;19908;-66
2023/04/06 14:00:55;;;;;;;;;;;12.90;80.00;;;;;;5108991;28;19911;-66
2023/04/06 14:03:21;;;;;;;;;;;12.90;80.10;;;;;;5108251;28;19916;-66
2023/04/06 14:05:46;;;;;;;;;;;12.90;80.20;;;;;;5108791;28;19920;-66
2023/04/06 14:08:12;;;;;;;;;;;12.90;80.20;;;;;;5108337;28;20010;-66
2023/04/06 14:10:41;;;;;;;;;;;12.80;80.10;;;;;;5108338;28;19915;-66
2023/04/06 14:13:07;;;;;;;;;;;12.80;80.20;;;;;;5108087;28;19919;-66
2023/04/06 14:15:33;;;;;;;;;;;12.80;79.60;;;;;;5108574;28;19908;-66
2023/04/06 14:17:58;;;;;;;;;;;12.80;79.80;;;;;;5108444;28;20433;-66
2023/04/06 14:20:24;;;;;;;;;;;12.80;80.00;;;;;;5107172;28;20555;-66